Rosaria Lauro — IXXO — position and weather

sailwx.info

Track history (hours):
 
Tides and Currents Weather Stations Pressure Air Temp Water Temp Dewpoint Dewpoint Depression Visibility Wind Speed Wind Dir Waves Ship Positions

Rosaria Lauro

Last reported at 2017-Oct-22 15:50 UTC. Time now 2017-Oct-22 19:30 UTC.
Position N 40°47' E 014°11'.

Length 42 m; draft 1.2 m.

Type: Passenger vessel. MMSI: 247055900.

Date/timePositionNaut miles runAvg speedWind from/ knotsBaromVisibWave heightAir tempDewpointWater temp
2017-Oct-22 15:50N 40°47' E 014°11'0 0.0
2017-Oct-22 11:26N 40°47' E 014°11'2 0.6
2017-Oct-22 08:13N 40°47' E 014°09'0 0.0
2017-Oct-21 18:43N 40°47' E 014°09'0 0.0
2017-Oct-21 16:19N 40°47' E 014°08'2 1.7
2017-Oct-21 15:22N 40°47' E 014°11'1 0.3
2017-Oct-21 13:03N 40°47' E 014°10'123.0
2017-Oct-21 13:00N 40°47' E 014°11'5 5.8
2017-Oct-21 12:08N 40°50' E 014°16'215.6
2017-Oct-21 12:00N 40°48' E 014°15'5 1.7
2017-Oct-21 09:15N 40°47' E 014°09'0 0.0
2017-Oct-20 18:44N 40°47' E 014°09'2 0.8
2017-Oct-20 16:14N 40°47' E 014°11'9 3.2
2017-Oct-20 13:19N 40°46' E 013°59'824.3
2017-Oct-20 12:59N 40°47' E 014°10'6 6.9
2017-Oct-20 12:08N 40°50' E 014°16'317.4
2017-Oct-20 11:57N 40°48' E 014°13'3 1.0
2017-Oct-20 09:12N 40°47' E 014°10'3 0.2
2017-Oct-19 18:48N 40°46' E 014°06'2 1.0
2017-Oct-19 16:21N 40°47' E 014°09'1 0.2
2017-Oct-19 12:58N 40°47' E 014°10'1 0.1
2017-Oct-19 09:16N 40°47' E 014°09'0 0.0
2017-Oct-18 18:43N 40°47' E 014°09'1 0.4
2017-Oct-18 16:20N 40°47' E 014°08'3 0.7
2017-Oct-18 12:56N 40°47' E 014°11'2 0.5
2017-Oct-18 09:18N 40°47' E 014°09'1 0.0
2017-Oct-17 18:44N 40°47' E 014°08'0 0.1
2017-Oct-17 16:20N 40°47' E 014°08'7 9.5
2017-Oct-17 15:37N 40°50' E 014°16'9 3.7
2017-Oct-17 13:08N 40°46' E 014°05'323.1
2017-Oct-17 13:01N 40°47' E 014°09'0 0.1
2017-Oct-17 09:14N 40°47' E 014°10'1 0.1
2017-Oct-16 16:18N 40°47' E 014°11'0 0.0
2017-Oct-16 12:57N 40°47' E 014°11'3 0.2
2017-Oct-15 18:52N 40°46' E 014°07'5 5.5
2017-Oct-15 17:59N 40°47' E 014°13'5 2.5
2017-Oct-15 16:06N 40°47' E 014°07'222.5
2017-Oct-15 16:00N 40°47' E 014°10'14 5.6
2017-Oct-15 13:31N 40°44' E 013°52'020.9
2017-Oct-15 13:31N 40°45' E 013°52'4 7.2
2017-Oct-15 13:00N 40°45' E 013°56'0 0.0
2017-Oct-15 12:30N 40°45' E 013°56'0 0.1
2017-Oct-15 12:00N 40°45' E 013°56'917.3
2017-Oct-15 11:30N 40°46' E 014°08'8 9.4
2017-Oct-15 10:42N 40°50' E 014°16'316.5
2017-Oct-15 10:29N 40°48' E 014°13'2 0.7
2017-Oct-15 08:11N 40°47' E 014°11'4 0.3
2017-Oct-14 18:49N 40°46' E 014°06'0 0.0
2017-Oct-14 16:24N 40°46' E 014°06'6 6.0
2017-Oct-14 15:25N 40°48' E 014°13'4 1.6
2017-Oct-14 13:01N 40°47' E 014°09'021.9
2017-Oct-14 13:00N 40°47' E 014°09'3 3.1
2017-Oct-14 11:59N 40°48' E 014°13'3 1.0
2017-Oct-14 09:22N 40°47' E 014°10'1 0.2
2017-Oct-14 05:57N 40°47' E 014°09'2 0.2
2017-Oct-13 18:49N 40°46' E 014°06'2 0.8
2017-Oct-13 16:19N 40°47' E 014°09'2 0.5
2017-Oct-13 12:56N 40°47' E 014°11'2 0.5
2017-Oct-13 09:15N 40°47' E 014°09'2 0.1
2017-Oct-12 18:39N 40°47' E 014°11'2 2.6
2017-Oct-12 17:46N 40°48' E 014°14'4 2.6
2017-Oct-12 16:19N 40°47' E 014°09'  
Track history (hours):
 
Tides and Currents Weather Stations Pressure Air Temp Water Temp Dewpoint Dewpoint Depression Visibility Wind Speed Wind Dir Waves Ship Positions

Rosaria Lauro

Last reported at 2017-Oct-22 15:50 UTC. Time now 2017-Oct-22 19:30 UTC.
Position N 40°47' E 014°11'.

Length 42 m; draft 1.2 m.

Type: Passenger vessel. MMSI: 247055900.

Date/timePositionNaut miles runAvg speedWind from/ knotsBaromVisibWave heightAir tempDewpointWater temp
2017-Oct-22 15:50N 40°47' E 014°11'0 0.0
2017-Oct-22 11:26N 40°47' E 014°11'2 0.6
2017-Oct-22 08:13N 40°47' E 014°09'0 0.0
2017-Oct-21 18:43N 40°47' E 014°09'0 0.0
2017-Oct-21 16:19N 40°47' E 014°08'2 1.7
2017-Oct-21 15:22N 40°47' E 014°11'1 0.3
2017-Oct-21 13:03N 40°47' E 014°10'123.0
2017-Oct-21 13:00N 40°47' E 014°11'5 5.8
2017-Oct-21 12:08N 40°50' E 014°16'215.6
2017-Oct-21 12:00N 40°48' E 014°15'5 1.7
2017-Oct-21 09:15N 40°47' E 014°09'0 0.0
2017-Oct-20 18:44N 40°47' E 014°09'2 0.8
2017-Oct-20 16:14N 40°47' E 014°11'9 3.2
2017-Oct-20 13:19N 40°46' E 013°59'824.3
2017-Oct-20 12:59N 40°47' E 014°10'6 6.9
2017-Oct-20 12:08N 40°50' E 014°16'317.4
2017-Oct-20 11:57N 40°48' E 014°13'3 1.0
2017-Oct-20 09:12N 40°47' E 014°10'3 0.2
2017-Oct-19 18:48N 40°46' E 014°06'2 1.0
2017-Oct-19 16:21N 40°47' E 014°09'1 0.2
2017-Oct-19 12:58N 40°47' E 014°10'1 0.1
2017-Oct-19 09:16N 40°47' E 014°09'0 0.0
2017-Oct-18 18:43N 40°47' E 014°09'1 0.4
2017-Oct-18 16:20N 40°47' E 014°08'3 0.7
2017-Oct-18 12:56N 40°47' E 014°11'2 0.5
2017-Oct-18 09:18N 40°47' E 014°09'1 0.0
2017-Oct-17 18:44N 40°47' E 014°08'0 0.1
2017-Oct-17 16:20N 40°47' E 014°08'7 9.5
2017-Oct-17 15:37N 40°50' E 014°16'9 3.7
2017-Oct-17 13:08N 40°46' E 014°05'323.1
2017-Oct-17 13:01N 40°47' E 014°09'0 0.1
2017-Oct-17 09:14N 40°47' E 014°10'1 0.1
2017-Oct-16 16:18N 40°47' E 014°11'0 0.0
2017-Oct-16 12:57N 40°47' E 014°11'3 0.2
2017-Oct-15 18:52N 40°46' E 014°07'5 5.5
2017-Oct-15 17:59N 40°47' E 014°13'5 2.5
2017-Oct-15 16:06N 40°47' E 014°07'222.5
2017-Oct-15 16:00N 40°47' E 014°10'14 5.6
2017-Oct-15 13:31N 40°44' E 013°52'020.9
2017-Oct-15 13:31N 40°45' E 013°52'4 7.2
2017-Oct-15 13:00N 40°45' E 013°56'0 0.0
2017-Oct-15 12:30N 40°45' E 013°56'0 0.1
2017-Oct-15 12:00N 40°45' E 013°56'917.3
2017-Oct-15 11:30N 40°46' E 014°08'8 9.4
2017-Oct-15 10:42N 40°50' E 014°16'316.5
2017-Oct-15 10:29N 40°48' E 014°13'2 0.7
2017-Oct-15 08:11N 40°47' E 014°11'4 0.3
2017-Oct-14 18:49N 40°46' E 014°06'0 0.0
2017-Oct-14 16:24N 40°46' E 014°06'6 6.0
2017-Oct-14 15:25N 40°48' E 014°13'4 1.6
2017-Oct-14 13:01N 40°47' E 014°09'021.9
2017-Oct-14 13:00N 40°47' E 014°09'3 3.1
2017-Oct-14 11:59N 40°48' E 014°13'3 1.0
2017-Oct-14 09:22N 40°47' E 014°10'1 0.2
2017-Oct-14 05:57N 40°47' E 014°09'2 0.2
2017-Oct-13 18:49N 40°46' E 014°06'2 0.8
2017-Oct-13 16:19N 40°47' E 014°09'2 0.5
2017-Oct-13 12:56N 40°47' E 014°11'2 0.5
2017-Oct-13 09:15N 40°47' E 014°09'2 0.1
2017-Oct-12 18:39N 40°47' E 014°11'2 2.6
2017-Oct-12 17:46N 40°48' E 014°14'4 2.6
2017-Oct-12 16:19N 40°47' E 014°09'  

Dump ship's entire track history